Winnipeg, Canada
Current Conditions -  °F | °C
As of 9:00 PM on Tuesday 25 Nov 2014 (Local Time) from CYWG Reporting Station
Broken Clouds Broken Clouds  
Wind Chill: -11°   Ceiling: 9000
Heat Index:   Visibility: 15mi
Dew Point: -4°   Wind: 12mph
Humidity: 66%   Direction: 10°N
Pressure: 30.19"   Gusts: NA
Location:  49.9°N, 97.14°W
Report Text: CYWG 260300Z 01010KT 15SM BKN090 M15/M20 A3019 RMK AC6 SLP245
Loading
Personal Weather Stations






























Interactive Weather Map New forecast layout! Learn more

10-Day Weather Forecast

Advertisements
Track Severe Weather on mobile